Time;durP1;ratioP1;P1;durP2;ratioP2;P2;SDS_P1;SDS_P2;PMS_P1;PMS_P2;Temp;Humidity;BMP_temperature;BMP_pressure;BME280_temperature;BME280_humidity;BME280_pressure;Samples;Min_cycle;Max_cycle;Signal;HPM_P1;HPM_P2
2024/01/12 00:00:46;;;;;;;63.35;20.65;;;;;;;-148.88;100.00;-17125.47;5045132;28;20034;-78
2024/01/12 00:03:12;;;;;;;68.55;18.95;;;;;;;-148.88;100.00;-17125.47;5046970;28;20388;-78
2024/01/12 00:05:37;;;;;;;71.63;20.02;;;;;;;-148.88;100.00;-17125.47;5047152;28;20052;-79
2024/01/12 00:08:03;;;;;;;64.80;18.73;;;;;;;-148.88;100.00;-17125.47;5046545;28;20025;-79
2024/01/12 00:10:28;;;;;;;60.03;19.02;;;;;;;-148.88;100.00;-17125.47;5046718;28;20025;-79
2024/01/12 00:12:54;;;;;;;70.25;19.85;;;;;;;-148.88;100.00;-17125.47;5045113;28;20071;-79
2024/01/12 00:15:19;;;;;;;68.15;20.08;;;;;;;-148.88;100.00;-17125.47;5049768;28;20102;-79
2024/01/12 00:17:44;;;;;;;53.65;17.15;;;;;;;-148.88;100.00;-17125.47;5052369;28;20043;-79
2024/01/12 00:20:10;;;;;;;66.43;19.00;;;;;;;-148.88;100.00;-17125.47;5050474;28;20055;-79
2024/01/12 00:22:36;;;;;;;56.42;15.90;;;;;;;-148.88;100.00;-17125.47;5051288;28;20022;-79
2024/01/12 00:25:01;;;;;;;68.65;18.75;;;;;;;-148.88;100.00;-17125.47;5051679;28;20033;-79
2024/01/12 00:27:26;;;;;;;78.07;19.77;;;;;;;-148.88;100.00;-17125.47;5051497;28;20029;-79
2024/01/12 00:29:52;;;;;;;63.95;18.17;;;;;;;-148.88;100.00;-17125.47;5046899;28;20025;-78
2024/01/12 00:32:17;;;;;;;60.63;18.80;;;;;;;-148.88;100.00;-17125.47;5043259;28;20029;-78
2024/01/12 00:34:42;;;;;;;70.07;19.23;;;;;;;-148.88;100.00;-17125.47;5044556;28;20052;-78
2024/01/12 00:37:08;;;;;;;63.97;18.38;;;;;;;-148.88;100.00;-17125.47;5044057;28;20095;-79
2024/01/12 00:39:35;;;;;;;70.90;19.42;;;;;;;-148.88;100.00;-17125.47;5042825;28;20021;-79
2024/01/12 00:42:00;;;;;;;62.60;18.15;;;;;;;-148.88;100.00;-17125.47;5044364;28;20040;-78
2024/01/12 00:44:26;;;;;;;67.38;19.27;;;;;;;-148.88;100.00;-17125.47;5044339;28;20403;-78
2024/01/12 00:46:51;;;;;;;78.88;21.23;;;;;;;-148.88;100.00;-17125.47;5042799;28;20461;-78
2024/01/12 00:49:20;;;;;;;63.88;19.27;;;;;;;-148.88;100.00;-17125.47;5050581;28;20033;-79
2024/01/12 00:51:46;;;;;;;68.78;19.88;;;;;;;-148.88;100.00;-17125.47;5049602;28;20026;-79
2024/01/12 00:54:11;;;;;;;77.95;20.20;;;;;;;-148.88;100.00;-17125.47;5050925;28;20365;-80
2024/01/12 00:56:37;;;;;;;81.10;21.27;;;;;;;-148.88;100.00;-17125.47;5049466;28;20025;-79
2024/01/12 00:59:02;;;;;;;71.72;20.77;;;;;;;-148.88;100.00;-17125.47;5050158;28;20021;-79
2024/01/12 01:01:28;;;;;;;75.07;20.20;;;;;;;-148.88;100.00;-17125.47;5049672;28;20480;-80
2024/01/12 01:03:54;;;;;;;79.25;20.73;;;;;;;-148.88;100.00;-17125.47;5048325;28;20476;-79
2024/01/12 01:06:19;;;;;;;84.50;20.65;;;;;;;-148.88;100.00;-17125.47;5040191;28;20064;-78
2024/01/12 01:08:45;;;;;;;79.63;20.17;;;;;;;-148.88;100.00;-17125.47;5042671;28;20029;-78
2024/01/12 01:11:11;;;;;;;74.15;20.45;;;;;;;-148.88;100.00;-17125.47;5043408;28;20041;-79
2024/01/12 01:13:36;;;;;;;66.57;18.98;;;;;;;-148.88;100.00;-17125.47;5041543;28;20033;-79
2024/01/12 01:16:03;;;;;;;71.20;20.27;;;;;;;-148.88;100.00;-17125.47;5040260;28;20025;-79
2024/01/12 01:18:30;;;;;;;70.93;20.23;;;;;;;-148.88;100.00;-17125.47;5041611;28;20025;-79
2024/01/12 01:20:57;;;;;;;74.28;20.88;;;;;;;-148.88;100.00;-17125.47;5043109;28;20033;-80
2024/01/12 01:23:22;;;;;;;77.55;21.38;;;;;;;-148.88;100.00;-17125.47;5048626;28;20029;-80
2024/01/12 01:25:50;;;;;;;82.53;22.48;;;;;;;-148.88;100.00;-17125.47;5050469;28;20032;-79
2024/01/12 01:28:16;;;;;;;77.25;21.75;;;;;;;-148.88;100.00;-17125.47;5048143;28;20021;-80
2024/01/12 01:30:41;;;;;;;70.45;19.98;;;;;;;-148.88;100.00;-17125.47;5049779;28;20021;-80
2024/01/12 01:33:06;;;;;;;67.93;21.05;;;;;;;-148.88;100.00;-17125.47;5047984;28;20053;-80
2024/01/12 01:35:32;;;;;;;65.15;19.23;;;;;;;-148.88;100.00;-17125.47;5049862;28;20091;-80
2024/01/12 01:37:57;;;;;;;72.50;20.20;;;;;;;-148.88;100.00;-17125.47;5048336;28;20032;-80
2024/01/12 01:40:23;;;;;;;54.38;17.63;;;;;;;-148.88;100.00;-17125.47;5044733;28;20053;-78
2024/01/12 01:42:49;;;;;;;67.18;18.42;;;;;;;-148.88;100.00;-17125.47;5039155;28;20044;-79
2024/01/12 01:45:15;;;;;;;65.88;19.70;;;;;;;-148.88;100.00;-17125.47;5038570;28;20033;-78
2024/01/12 01:47:41;;;;;;;66.20;18.88;;;;;;;-148.88;100.00;-17125.47;5037098;28;20051;-79
2024/01/12 01:50:07;;;;;;;67.75;19.38;;;;;;;-148.88;100.00;-17125.47;5037641;28;20025;-79
2024/01/12 01:52:33;;;;;;;95.80;21.77;;;;;;;-148.88;100.00;-17125.47;5037961;28;20022;-79
2024/01/12 01:54:58;;;;;;;80.53;19.20;;;;;;;-148.88;100.00;-17125.47;5044039;28;20031;-80
2024/01/12 01:57:26;;;;;;;66.82;20.48;;;;;;;-148.88;100.00;-17125.47;5049314;28;20036;-80
2024/01/12 01:59:52;;;;;;;72.72;19.80;;;;;;;-148.88;100.00;-17125.47;5048584;28;20025;-80
2024/01/12 02:02:17;;;;;;;66.93;22.00;;;;;;;-148.88;100.00;-17125.47;5049413;28;20028;-80
2024/01/12 02:04:43;;;;;;;63.17;18.48;;;;;;;-148.88;100.00;-17125.47;5049272;28;20080;-80
2024/01/12 02:07:09;;;;;;;69.22;20.25;;;;;;;-148.88;100.00;-17125.47;5049248;28;20025;-80
2024/01/12 02:09:35;;;;;;;79.10;20.25;;;;;;;-148.88;100.00;-17125.47;5048953;28;20052;-80
2024/01/12 02:12:04;;;;;;;61.58;19.13;;;;;;;-148.88;100.00;-17125.47;5048797;28;20026;-80
2024/01/12 02:14:30;;;;;;;62.15;18.70;;;;;;;-148.88;100.00;-17125.47;5048495;28;20038;-80
2024/01/12 02:16:55;;;;;;;66.35;18.27;;;;;;;-148.88;100.00;-17125.47;5038520;28;20026;-79
2024/01/12 02:19:20;;;;;;;69.53;19.10;;;;;;;-148.88;100.00;-17125.47;5036054;28;20043;-79
2024/01/12 02:21:46;;;;;;;76.88;20.05;;;;;;;-148.88;100.00;-17125.47;5035930;28;20017;-79
2024/01/12 02:24:11;;;;;;;75.65;19.10;;;;;;;-148.88;100.00;-17125.47;5035528;28;20546;-79
2024/01/12 02:26:36;;;;;;;59.83;19.02;;;;;;;-148.88;100.00;-17125.47;5036449;28;20025;-79
2024/01/12 02:29:03;;;;;;;58.60;19.38;;;;;;;-148.88;100.00;-17125.47;5047512;28;20055;-80
2024/01/12 02:31:29;;;;;;;78.88;21.58;;;;;;;-148.88;100.00;-17125.47;5047982;28;20036;-80
2024/01/12 02:33:55;;;;;;;73.13;19.30;;;;;;;-148.88;100.00;-17125.47;5048973;28;20499;-80
2024/01/12 02:36:20;;;;;;;69.55;19.15;;;;;;;-148.88;100.00;-17125.47;5046993;28;20025;-80
2024/01/12 02:38:49;;;;;;;63.75;18.40;;;;;;;-148.88;100.00;-17125.47;5048661;28;20026;-80
2024/01/12 02:41:14;;;;;;;63.05;20.75;;;;;;;-148.88;100.00;-17125.47;5048865;28;20029;-81
2024/01/12 02:43:40;;;;;;;61.90;18.77;;;;;;;-148.88;100.00;-17125.47;5047308;28;20024;-80
2024/01/12 02:46:05;;;;;;;73.40;18.90;;;;;;;-148.88;100.00;-17125.47;5047867;28;20476;-80
2024/01/12 02:48:30;;;;;;;69.07;17.65;;;;;;;-148.88;100.00;-17125.47;5046899;28;20025;-80
2024/01/12 02:50:55;;;;;;;79.78;19.95;;;;;;;-148.88;100.00;-17125.47;5045492;28;20022;-79
2024/01/12 02:53:21;;;;;;;66.18;19.45;;;;;;;-148.88;100.00;-17125.47;5033277;28;20033;-79
2024/01/12 02:55:46;;;;;;;67.00;18.65;;;;;;;-148.88;100.00;-17125.47;5034821;28;20104;-79
2024/01/12 02:58:12;;;;;;;67.70;18.48;;;;;;;-148.88;100.00;-17125.47;5034882;28;20064;-79
2024/01/12 03:00:37;;;;;;;71.22;19.35;;;;;;;-148.88;100.00;-17125.47;5039008;28;20032;-80
2024/01/12 03:03:02;;;;;;;73.28;20.75;;;;;;;-148.88;100.00;-17125.47;5047786;28;20028;-80
2024/01/12 03:05:28;;;;;;;78.38;18.23;;;;;;;-148.88;100.00;-17125.47;5046267;28;20029;-80
2024/01/12 03:07:53;;;;;;;72.93;19.25;;;;;;;-148.88;100.00;-17125.47;5045759;28;20029;-80
2024/01/12 03:10:18;;;;;;;69.07;18.25;;;;;;;-148.88;100.00;-17125.47;5047020;28;20032;-80
2024/01/12 03:12:44;;;;;;;60.80;17.42;;;;;;;-148.88;100.00;-17125.47;5047253;28;20045;-80
2024/01/12 03:15:09;;;;;;;57.95;18.23;;;;;;;-148.88;100.00;-17125.47;5046980;28;20033;-81
2024/01/12 03:17:34;;;;;;;61.08;17.08;;;;;;;-148.88;100.00;-17125.47;5047047;28;20026;-80
2024/01/12 03:20:00;;;;;;;58.20;15.88;;;;;;;-148.88;100.00;-17125.47;5044984;28;20026;-80
2024/01/12 03:22:25;;;;;;;48.20;15.23;;;;;;;-148.88;100.00;-17125.47;5046010;28;20081;-80
2024/01/12 03:24:51;;;;;;;56.50;16.20;;;;;;;-148.88;100.00;-17125.47;5044632;28;20448;-80
2024/01/12 03:27:16;;;;;;;65.28;15.57;;;;;;;-148.88;100.00;-17125.47;5040753;28;20104;-79
2024/01/12 03:29:41;;;;;;;62.03;16.23;;;;;;;-148.88;100.00;-17125.47;5032354;28;20025;-79
2024/01/12 03:32:07;;;;;;;51.00;14.88;;;;;;;-148.88;100.00;-17125.47;5033863;28;20120;-79
2024/01/12 03:34:32;;;;;;;52.35;15.48;;;;;;;-148.88;100.00;-17125.47;5040987;28;20500;-80
2024/01/12 03:36:57;;;;;;;52.20;13.90;;;;;;;-148.88;100.00;-17125.47;5046198;28;20039;-80
2024/01/12 03:39:23;;;;;;;43.17;13.32;;;;;;;-148.88;100.00;-17125.47;5046497;28;20074;-80
2024/01/12 03:41:48;;;;;;;47.00;13.35;;;;;;;-148.88;100.00;-17125.47;5045110;28;20044;-81
2024/01/12 03:44:13;;;;;;;43.92;14.75;;;;;;;-148.88;100.00;-17125.47;5045514;28;20025;-81
2024/01/12 03:46:39;;;;;;;52.13;14.13;;;;;;;-148.88;100.00;-17125.47;5044736;28;20089;-81
2024/01/12 03:49:04;;;;;;;46.58;12.15;;;;;;;-148.88;100.00;-17125.47;5045494;28;20092;-81
2024/01/12 03:51:29;;;;;;;50.10;12.60;;;;;;;-148.88;100.00;-17125.47;5045380;28;20105;-81
2024/01/12 03:53:55;;;;;;;38.97;12.13;;;;;;;-148.88;100.00;-17125.47;5046130;28;20033;-80
2024/01/12 03:56:20;;;;;;;41.42;12.50;;;;;;;-148.88;100.00;-17125.47;5046431;28;20029;-81
2024/01/12 03:58:45;;;;;;;49.90;13.48;;;;;;;-148.88;100.00;-17125.47;5044785;28;20021;-81
2024/01/12 04:01:10;;;;;;;54.55;15.15;;;;;;;-148.88;100.00;-17125.47;5045496;28;20030;-80
2024/01/12 04:03:36;;;;;;;50.58;14.43;;;;;;;-148.88;100.00;-17125.47;5035646;28;20053;-79
2024/01/12 04:06:07;;;;;;;45.95;14.65;;;;;;;-148.88;100.00;-17125.47;5032219;28;20022;-79
2024/01/12 04:08:32;;;;;;;44.63;14.10;;;;;;;-148.88;100.00;-17125.47;5043067;28;20037;-81
2024/01/12 04:10:57;;;;;;;40.90;13.82;;;;;;;-148.88;100.00;-17125.47;5045208;28;20022;-81
2024/01/12 04:13:23;;;;;;;44.63;15.50;;;;;;;-148.88;100.00;-17125.47;5047366;28;20025;-81
2024/01/12 04:15:48;;;;;;;52.25;16.30;;;;;;;-148.88;100.00;-17125.47;5049090;28;20017;-81
2024/01/12 04:18:13;;;;;;;55.63;15.00;;;;;;;-148.88;100.00;-17125.47;5049611;28;20048;-81
2024/01/12 04:20:38;;;;;;;55.92;15.30;;;;;;;-148.88;100.00;-17125.47;5048460;28;20033;-81
2024/01/12 04:23:04;;;;;;;52.28;15.52;;;;;;;-148.88;100.00;-17125.47;5048456;28;20013;-81
2024/01/12 04:25:29;;;;;;;50.25;14.27;;;;;;;-148.88;100.00;-17125.47;5048738;28;20048;-82
2024/01/12 04:27:54;;;;;;;59.40;14.95;;;;;;;-148.88;100.00;-17125.47;5047570;28;20097;-81
2024/01/12 04:30:20;;;;;;;52.70;15.65;;;;;;;-148.88;100.00;-17125.47;5048034;28;20108;-81
2024/01/12 04:32:45;;;;;;;50.63;14.63;;;;;;;-148.88;100.00;-17125.47;5047628;28;20112;-81
2024/01/12 04:35:11;;;;;;;52.25;14.50;;;;;;;-148.88;100.00;-17125.47;5045977;28;20029;-80
2024/01/12 04:37:36;;;;;;;47.60;12.88;;;;;;;-148.88;100.00;-17125.47;5049425;28;20025;-80
2024/01/12 04:40:03;;;;;;;53.42;13.13;;;;;;;-148.88;100.00;-17125.47;5043140;28;20022;-80
2024/01/12 04:42:28;;;;;;;40.75;13.15;;;;;;;-148.88;100.00;-17125.47;5051190;28;20029;-80
2024/01/12 04:44:54;;;;;;;41.22;12.40;;;;;;;-148.88;100.00;-17125.47;5051496;28;20025;-81
2024/01/12 04:47:19;;;;;;;38.42;11.35;;;;;;;-148.88;100.00;-17125.47;5050323;28;20048;-81
2024/01/12 04:49:44;;;;;;;42.33;12.68;;;;;;;-148.88;100.00;-17125.47;5049982;28;20122;-81
2024/01/12 04:52:10;;;;;;;41.65;11.98;;;;;;;-148.88;100.00;-17125.47;5049790;28;20079;-81
2024/01/12 04:54:35;;;;;;;34.50;11.50;;;;;;;-148.88;100.00;-17125.47;5051409;28;20374;-81
2024/01/12 04:57:00;;;;;;;41.13;11.55;;;;;;;-148.88;100.00;-17125.47;5047712;28;20092;-81
2024/01/12 04:59:26;;;;;;;39.83;11.65;;;;;;;-148.88;100.00;-17125.47;5050163;28;20086;-81
2024/01/12 05:01:51;;;;;;;34.63;10.77;;;;;;;-148.88;100.00;-17125.47;5050320;28;20107;-80
2024/01/12 05:04:16;;;;;;;38.30;11.20;;;;;;;-148.88;100.00;-17125.47;5049983;28;20033;-81
2024/01/12 05:06:42;;;;;;;36.55;11.32;;;;;;;-148.88;100.00;-17125.47;5044457;28;20049;-80
2024/01/12 05:09:07;;;;;;;42.67;12.48;;;;;;;-148.88;100.00;-17125.47;5045068;28;20025;-81
2024/01/12 05:11:33;;;;;;;49.72;12.20;;;;;;;-148.88;100.00;-17125.47;5043610;28;20018;-81
2024/01/12 05:13:59;;;;;;;41.42;11.82;;;;;;;-148.88;100.00;-17125.47;5056816;23;20444;-84
2024/01/12 05:16:24;;;;;;;38.42;12.52;;;;;;;-148.88;100.00;-17125.47;5035615;28;20029;-84
2024/01/12 05:18:49;;;;;;;34.40;11.18;;;;;;;-148.88;100.00;-17125.47;5050483;28;20108;-84
2024/01/12 05:21:18;;;;;;;41.08;11.32;;;;;;;-148.88;100.00;-17125.47;5034051;28;20041;-84
2024/01/12 05:23:44;;;;;;;34.50;10.57;;;;;;;-148.88;100.00;-17125.47;5033190;28;20021;-84
2024/01/12 05:26:09;;;;;;;44.80;10.85;;;;;;;-148.88;100.00;-17125.47;5033669;28;20021;-83
2024/01/12 05:28:35;;;;;;;45.47;11.88;;;;;;;-148.88;100.00;-17125.47;5033456;28;20037;-83
2024/01/12 05:31:00;;;;;;;45.30;10.48;;;;;;;-148.88;100.00;-17125.47;5035423;28;20021;-83
2024/01/12 05:33:25;;;;;;;33.67;10.73;;;;;;;-148.88;100.00;-17125.47;5033639;28;20045;-83
2024/01/12 05:35:51;;;;;;;38.67;10.82;;;;;;;-148.88;100.00;-17125.47;5034667;28;20395;-84
2024/01/12 05:38:16;;;;;;;32.75;9.98;;;;;;;-148.88;100.00;-17125.47;5035189;28;20108;-84
2024/01/12 05:40:41;;;;;;;41.13;9.63;;;;;;;-148.88;100.00;-17125.47;5036064;28;20025;-86
2024/01/12 05:43:07;;;;;;;29.95;9.52;;;;;;;-148.88;100.00;-17125.47;5034790;28;20028;-84
2024/01/12 05:45:32;;;;;;;37.22;10.07;;;;;;;-148.88;100.00;-17125.47;5034373;28;20536;-83
2024/01/12 05:47:57;;;;;;;32.63;8.70;;;;;;;-148.88;100.00;-17125.47;5034198;28;20029;-83
2024/01/12 05:50:23;;;;;;;36.45;9.65;;;;;;;-148.88;100.00;-17125.47;5034560;28;20032;-83
2024/01/12 05:52:48;;;;;;;35.22;8.90;;;;;;;-148.88;100.00;-17125.47;5036233;28;20032;-83
2024/01/12 05:55:13;;;;;;;33.65;9.65;;;;;;;-148.88;100.00;-17125.47;5035097;28;20100;-85
2024/01/12 05:57:39;;;;;;;37.13;10.35;;;;;;;-148.88;100.00;-17125.47;5035330;28;20027;-83
2024/01/12 06:00:05;;;;;;;34.13;10.52;;;;;;;-148.88;100.00;-17125.47;5035102;28;20026;-83
2024/01/12 06:02:30;;;;;;;26.83;9.65;;;;;;;-148.88;100.00;-17125.47;5034245;28;20438;-84
2024/01/12 06:04:56;;;;;;;34.90;10.05;;;;;;;-148.88;100.00;-17125.47;5035362;28;20022;-84
2024/01/12 06:07:21;;;;;;;39.25;9.52;;;;;;;-148.88;100.00;-17125.47;5033907;28;20531;-84
2024/01/12 06:09:46;;;;;;;28.90;8.90;;;;;;;-148.88;100.00;-17125.47;5034402;28;20112;-85
2024/01/12 06:12:12;;;;;;;27.30;8.98;;;;;;;-148.88;100.00;-17125.47;5034108;28;20033;-85
2024/01/12 06:14:38;;;;;;;31.42;8.60;;;;;;;-148.88;100.00;-17125.47;5034438;28;20033;-85
2024/01/12 06:17:04;;;;;;;27.30;7.80;;;;;;;-148.88;100.00;-17125.47;5034130;28;20029;-85
2024/01/12 06:19:29;;;;;;;36.65;11.10;;;;;;;-148.88;100.00;-17125.47;5034340;28;20395;-84
2024/01/12 06:21:55;;;;;;;33.05;9.85;;;;;;;-148.88;100.00;-17125.47;5034348;28;20471;-84
2024/01/12 06:24:20;;;;;;;29.30;9.27;;;;;;;-148.88;100.00;-17125.47;5033443;28;20180;-84
2024/01/12 06:26:45;;;;;;;30.20;8.45;;;;;;;-148.88;100.00;-17125.47;5033547;28;20476;-84
2024/01/12 06:29:11;;;;;;;25.05;7.68;;;;;;;-148.88;100.00;-17125.47;5034444;28;20036;-84
2024/01/12 06:31:36;;;;;;;41.00;9.63;;;;;;;-148.88;100.00;-17125.47;5033470;28;20036;-84
2024/01/12 06:34:01;;;;;;;30.80;9.40;;;;;;;-148.88;100.00;-17125.47;5032918;28;20108;-83
2024/01/12 06:36:27;;;;;;;27.38;8.95;;;;;;;-148.88;100.00;-17125.47;5033195;28;20036;-84
2024/01/12 06:38:52;;;;;;;29.95;9.32;;;;;;;-148.88;100.00;-17125.47;5034249;28;20021;-85
2024/01/12 06:41:18;;;;;;;32.40;8.65;;;;;;;-148.88;100.00;-17125.47;5032920;28;20104;-83
2024/01/12 06:43:45;;;;;;;37.10;8.63;;;;;;;-148.88;100.00;-17125.47;5032929;28;20438;-84
2024/01/12 06:46:10;;;;;;;34.13;9.55;;;;;;;-148.88;100.00;-17125.47;5033106;28;20025;-84
2024/01/12 06:48:36;;;;;;;32.85;8.23;;;;;;;-148.88;100.00;-17125.47;5034924;28;20104;-85
2024/01/12 06:51:01;;;;;;;27.92;8.93;;;;;;;-148.88;100.00;-17125.47;5032707;28;20025;-84
2024/01/12 06:53:27;;;;;;;31.35;7.80;;;;;;;-148.88;100.00;-17125.47;5032599;28;20025;-85
2024/01/12 06:55:52;;;;;;;23.05;8.50;;;;;;;-148.88;100.00;-17125.47;5032790;28;20071;-85
2024/01/12 06:58:17;;;;;;;27.85;7.43;;;;;;;-148.88;100.00;-17125.47;5032206;28;20120;-86
2024/01/12 07:00:43;;;;;;;30.25;8.57;;;;;;;-148.88;100.00;-17125.47;5033372;28;20061;-86
2024/01/12 07:03:08;;;;;;;36.65;8.55;;;;;;;-148.88;100.00;-17125.47;5032922;28;20079;-86
2024/01/12 07:05:33;;;;;;;23.02;7.85;;;;;;;-148.88;100.00;-17125.47;5033236;28;20025;-86
2024/01/12 07:07:59;;;;;;;31.15;9.57;;;;;;;-148.88;100.00;-17125.47;5033360;28;20030;-86
2024/01/12 07:10:24;;;;;;;32.33;8.45;;;;;;;-148.88;100.00;-17125.47;5032241;28;20033;-86
2024/01/12 07:12:52;;;;;;;27.75;8.70;;;;;;;-148.88;100.00;-17125.47;5031801;28;20032;-85
2024/01/12 07:15:20;;;;;;;23.40;7.90;;;;;;;-148.88;100.00;-17125.47;5033314;28;20506;-85
2024/01/12 07:17:50;;;;;;;40.58;8.40;;;;;;;-148.88;100.00;-17125.47;5032458;28;20490;-84
2024/01/12 07:20:15;;;;;;;34.03;9.40;;;;;;;-148.88;100.00;-17125.47;5031928;28;20040;-85
2024/01/12 07:22:40;;;;;;;38.15;9.20;;;;;;;-148.88;100.00;-17125.47;5031868;28;20055;-85
2024/01/12 07:25:06;;;;;;;27.55;8.15;;;;;;;-148.88;100.00;-17125.47;5033629;28;20084;-86
2024/01/12 07:27:31;;;;;;;23.67;8.10;;;;;;;-148.88;100.00;-17125.47;5031671;28;20029;-85
2024/01/12 07:29:57;;;;;;;30.05;9.30;;;;;;;-148.88;100.00;-17125.47;5032064;28;20055;-86
2024/01/12 07:32:23;;;;;;;35.75;9.90;;;;;;;-148.88;100.00;-17125.47;5033063;28;20033;-85
2024/01/12 07:34:49;;;;;;;31.83;8.75;;;;;;;-148.88;100.00;-17125.47;5032127;28;20447;-85
2024/01/12 07:37:14;;;;;;;34.47;10.18;;;;;;;-148.88;100.00;-17125.47;5033239;28;20056;-84
2024/01/12 07:39:40;;;;;;;37.25;10.15;;;;;;;-148.88;100.00;-17125.47;5032498;28;20056;-85
2024/01/12 07:42:11;;;;;;;41.53;9.82;;;;;;;-148.88;100.00;-17125.47;5032593;28;20475;-85
2024/01/12 07:44:37;;;;;;;32.35;10.10;;;;;;;-148.88;100.00;-17125.47;5032454;28;20518;-85
2024/01/12 07:47:02;;;;;;;31.88;9.95;;;;;;;-148.88;100.00;-17125.47;5032036;28;20036;-84
2024/01/12 07:49:28;;;;;;;33.25;10.65;;;;;;;-148.88;100.00;-17125.47;5037136;28;20021;-85
2024/01/12 07:51:53;;;;;;;35.05;10.00;;;;;;;-148.88;100.00;-17125.47;5036359;28;20032;-84
2024/01/12 07:54:18;;;;;;;53.15;11.40;;;;;;;-148.88;100.00;-17125.47;5036215;28;20029;-84
2024/01/12 07:56:44;;;;;;;34.75;10.13;;;;;;;-148.88;100.00;-17125.47;5036397;28;20021;-84
2024/01/12 07:59:09;;;;;;;42.88;11.15;;;;;;;-148.88;100.00;-17125.47;5036969;28;20021;-84
2024/01/12 08:01:34;;;;;;;32.78;10.32;;;;;;;-148.88;100.00;-17125.47;5036609;28;20030;-85
2024/01/12 08:04:00;;;;;;;28.75;10.43;;;;;;;-148.88;100.00;-17125.47;5035662;28;20034;-84
2024/01/12 08:06:25;;;;;;;38.55;10.80;;;;;;;-148.88;100.00;-17125.47;5035875;28;20160;-85
2024/01/12 08:08:50;;;;;;;38.58;10.57;;;;;;;-148.88;100.00;-17125.47;5036692;28;20022;-86
2024/01/12 08:11:16;;;;;;;40.55;11.38;;;;;;;-148.88;100.00;-17125.47;5036390;28;20049;-86
2024/01/12 08:13:41;;;;;;;41.72;11.35;;;;;;;-148.88;100.00;-17125.47;5035091;28;20068;-87
2024/01/12 08:16:07;;;;;;;43.35;11.43;;;;;;;-148.88;100.00;-17125.47;5035405;28;20033;-85
2024/01/12 08:18:34;;;;;;;41.63;12.95;;;;;;;-148.88;100.00;-17125.47;5036340;28;20064;-86
2024/01/12 08:20:59;;;;;;;35.10;11.70;;;;;;;-148.88;100.00;-17125.47;5035355;28;20051;-86
2024/01/12 08:23:24;;;;;;;36.55;12.52;;;;;;;-148.88;100.00;-17125.47;5036434;28;20164;-86
2024/01/12 08:25:50;;;;;;;38.00;10.88;;;;;;;-148.88;100.00;-17125.47;5035028;28;20021;-86
2024/01/12 08:28:15;;;;;;;49.22;12.57;;;;;;;-148.88;100.00;-17125.47;5034835;28;20021;-86
2024/01/12 08:30:40;;;;;;;40.80;12.20;;;;;;;-148.88;100.00;-17125.47;5035852;28;20262;-85
2024/01/12 08:33:06;;;;;;;52.63;12.18;;;;;;;-148.88;100.00;-17125.47;5035925;28;20029;-85
2024/01/12 08:35:37;;;;;;;45.47;13.10;;;;;;;-148.88;100.00;-17125.47;5034776;28;20112;-85
2024/01/12 08:38:03;;;;;;;45.00;13.15;;;;;;;-148.88;100.00;-17125.47;5034564;28;20519;-85
2024/01/12 08:40:28;;;;;;;46.42;13.18;;;;;;;-148.88;100.00;-17125.47;5035979;28;20030;-86
2024/01/12 08:42:56;;;;;;;40.42;13.65;;;;;;;-148.88;100.00;-17125.47;5035460;28;20021;-86
2024/01/12 08:45:21;;;;;;;42.28;12.07;;;;;;;-148.88;100.00;-17125.47;5034505;28;20037;-87
2024/01/12 08:47:46;;;;;;;44.70;12.55;;;;;;;-148.88;100.00;-17125.47;5034738;28;20021;-85
2024/01/12 08:50:12;;;;;;;41.80;12.77;;;;;;;-148.88;100.00;-17125.47;5034466;28;20108;-85
2024/01/12 08:52:37;;;;;;;44.10;13.35;;;;;;;-148.88;100.00;-17125.47;5034265;28;20029;-85
2024/01/12 08:55:05;;;;;;;48.00;13.30;;;;;;;-148.88;100.00;-17125.47;5034386;28;20022;-85
2024/01/12 08:57:30;;;;;;;46.90;11.30;;;;;;;-148.88;100.00;-17125.47;5034919;28;20045;-83
2024/01/12 08:59:56;;;;;;;36.75;12.13;;;;;;;-148.88;100.00;-17125.47;5036101;28;20079;-84
2024/01/12 09:02:22;;;;;;;41.70;13.20;;;;;;;-148.88;100.00;-17125.47;5036411;28;20072;-84
2024/01/12 09:04:47;;;;;;;42.65;12.82;;;;;;;-148.88;100.00;-17125.47;5034304;28;20048;-85
2024/01/12 09:07:12;;;;;;;38.40;11.63;;;;;;;-148.88;100.00;-17125.47;5034478;28;20025;-84
2024/01/12 09:09:38;;;;;;;43.72;12.27;;;;;;;-148.88;100.00;-17125.47;5035295;28;20040;-84
2024/01/12 09:12:03;;;;;;;42.10;11.90;;;;;;;-148.88;100.00;-17125.47;5034641;28;20490;-85
2024/01/12 09:14:29;;;;;;;38.70;13.15;;;;;;;-148.88;100.00;-17125.47;5034508;28;20033;-85
2024/01/12 09:16:54;;;;;;;31.88;12.07;;;;;;;-148.88;100.00;-17125.47;5036061;28;20025;-84
2024/01/12 09:19:19;;;;;;;40.22;12.27;;;;;;;-148.88;100.00;-17125.47;5035434;28;20028;-84
2024/01/12 09:21:50;;;;;;;39.75;13.85;;;;;;;-148.88;100.00;-17125.47;5035028;28;20092;-84
2024/01/12 09:24:18;;;;;;;50.22;12.73;;;;;;;-148.88;100.00;-17125.47;5036566;28;20053;-85
2024/01/12 09:26:44;;;;;;;44.33;12.93;;;;;;;-148.88;100.00;-17125.47;5034479;28;20028;-84
2024/01/12 09:29:09;;;;;;;43.53;12.80;;;;;;;-148.88;100.00;-17125.47;5034060;28;20017;-84
2024/01/12 09:31:35;;;;;;;40.20;12.75;;;;;;;-148.88;100.00;-17125.47;5035011;28;20184;-83
2024/01/12 09:34:00;;;;;;;56.03;14.45;;;;;;;-148.88;100.00;-17125.47;5035056;28;20052;-84
2024/01/12 09:36:25;;;;;;;46.72;13.32;;;;;;;-148.88;100.00;-17125.47;5036015;28;20029;-85
2024/01/12 09:38:51;;;;;;;44.60;14.18;;;;;;;-148.88;100.00;-17125.47;5036426;28;20064;-84
2024/01/12 09:41:24;;;;;;;49.83;13.80;;;;;;;-148.88;100.00;-17125.47;5034406;28;20018;-85
2024/01/12 09:43:54;;;;;;;44.78;13.68;;;;;;;-148.88;100.00;-17125.47;5035408;28;20057;-84
2024/01/12 09:46:23;;;;;;;47.80;13.68;;;;;;;-148.88;100.00;-17125.47;5035577;28;20484;-84
2024/01/12 09:48:49;;;;;;;53.97;14.45;;;;;;;-148.88;100.00;-17125.47;5033938;28;20026;-84
2024/01/12 09:51:18;;;;;;;44.42;14.15;;;;;;;-148.88;100.00;-17125.47;5034554;28;20025;-84
2024/01/12 09:53:43;;;;;;;49.83;14.57;;;;;;;-148.88;100.00;-17125.47;5034510;28;20032;-84
2024/01/12 09:56:09;;;;;;;50.58;16.02;;;;;;;-148.88;100.00;-17125.47;5034241;28;20021;-84
2024/01/12 09:58:40;;;;;;;48.30;14.23;;;;;;;-148.88;100.00;-17125.47;5034996;28;20029;-84
2024/01/12 10:01:08;;;;;;;56.53;15.18;;;;;;;-148.88;100.00;-17125.47;5034596;28;20025;-83
2024/01/12 10:03:35;;;;;;;49.83;14.57;;;;;;;-148.88;100.00;-17125.47;5033563;28;20028;-84
2024/01/12 10:06:03;;;;;;;53.03;15.38;;;;;;;-148.88;100.00;-17125.47;5034847;28;20025;-84
2024/01/12 10:08:36;;;;;;;52.35;14.80;;;;;;;-148.88;100.00;-17125.47;5036709;28;20056;-85
2024/01/12 10:11:01;;;;;;;56.75;16.33;;;;;;;-148.88;100.00;-17125.47;5034843;28;20108;-85
2024/01/12 10:13:26;;;;;;;53.17;15.68;;;;;;;-148.88;100.00;-17125.47;5034261;28;20104;-88
2024/01/12 10:15:52;;;;;;;49.08;13.88;;;;;;;-148.88;100.00;-17125.47;5033153;28;20026;-86
2024/01/12 10:18:17;;;;;;;53.22;14.63;;;;;;;-148.88;100.00;-17125.47;5034428;28;20125;-84
2024/01/12 10:20:42;;;;;;;49.13;13.07;;;;;;;-148.88;100.00;-17125.47;5034816;28;20056;-85
2024/01/12 10:23:08;;;;;;;37.58;11.77;;;;;;;-148.88;100.00;-17125.47;5034742;28;20454;-84
2024/01/12 10:25:34;;;;;;;30.92;10.88;;;;;;;-148.88;100.00;-17125.47;5034351;28;20030;-86
2024/01/12 10:27:59;;;;;;;37.58;13.60;;;;;;;-148.88;100.00;-17125.47;5032793;28;20037;-85
2024/01/12 10:30:26;;;;;;;51.95;15.95;;;;;;;-148.88;100.00;-17125.47;5034304;28;20514;-84
2024/01/12 10:32:53;;;;;;;44.47;13.77;;;;;;;-148.88;100.00;-17125.47;5034697;28;20028;-84
2024/01/12 10:35:21;;;;;;;45.72;14.60;;;;;;;-148.88;100.00;-17125.47;5033853;28;20033;-85
2024/01/12 10:37:48;;;;;;;42.00;13.90;;;;;;;-148.88;100.00;-17125.47;5035814;28;20026;-85
2024/01/12 10:40:17;;;;;;;48.10;14.20;;;;;;;-148.88;100.00;-17125.47;5033950;28;20021;-85